Terminal Aerodrome Forecast
Issued by NWS

Home | Current Version | Previous Version | Text Only | Print | Product List | Glossary On
Versions: 1 2 3 4 5 6 7 8 9 10 11 12 13 14 15 16
826
FTUS46 KSEW 230856 AAA
TAFPAE
TAF AMD
KPAE 230856Z 2309/2406 VRB03KT P6SM BKN012
     FM231200 VRB03KT 5SM BR BKN004 OVC010
     FM231700 13005KT P6SM SCT070 BKN200
     FM232000 34004KT P6SM SCT070 BKN200=

USA.gov is the U.S. government's official web portal to all federal, state and local government web resources and services.